Time;durP1;ratioP1;P1;durP2;ratioP2;P2;SDS_P1;SDS_P2;PMS_P1;PMS_P2;Temp;Humidity;BMP_temperature;BMP_pressure;BME280_temperature;BME280_humidity;BME280_pressure;Samples;Min_cycle;Max_cycle;Signal;HPM_P1;HPM_P2
2022/09/16 00:00:09;;;;;;;4.65;0.98;;;;;;;;;;5073118;28;20020;-81
2022/09/16 00:02:35;;;;;;;1.00;0.70;;;;;;;;;;5038678;28;20061;-82
2022/09/16 00:05:00;;;;;;;0.93;0.68;;;;;;;;;;5073236;28;20436;-81
2022/09/16 00:07:25;;;;;;;0.82;0.65;;;;;;;;;;5054930;28;20074;-82
2022/09/16 00:09:51;;;;;;;4.07;0.93;;;;;;;;;;5054670;28;20396;-82
2022/09/16 00:12:17;;;;;;;2.22;0.90;;;;;;;;;;5072902;28;20063;-82
2022/09/16 00:14:42;;;;;;;1.73;0.93;;;;;;;;;;5055238;28;20029;-82
2022/09/16 00:17:07;;;;;;;1.55;1.00;;;;;;;;;;5072655;28;20075;-81
2022/09/16 00:19:33;;;;;;;1.92;0.93;;;;;;;;;;5054671;28;20361;-82
2022/09/16 00:21:58;;;;;;;2.05;0.70;;;;;;;;;;5072623;28;20034;-81
2022/09/16 00:24:23;;;;;;;1.95;0.75;;;;;;;;;;5021579;28;20168;-81
2022/09/16 00:26:49;;;;;;;1.73;1.00;;;;;;;;;;5072819;28;20041;-82
2022/09/16 00:29:14;;;;;;;1.42;0.80;;;;;;;;;;5072659;28;20036;-81
2022/09/16 00:31:39;;;;;;;1.83;0.88;;;;;;;;;;5072720;28;20375;-82
2022/09/16 00:34:05;;;;;;;3.72;0.68;;;;;;;;;;5072366;28;20036;-82
2022/09/16 00:36:30;;;;;;;2.05;0.90;;;;;;;;;;5072299;28;20034;-82
2022/09/16 00:38:56;;;;;;;2.38;0.80;;;;;;;;;;5072320;28;20016;-82
2022/09/16 00:41:27;;;;;;;1.48;0.70;;;;;;;;;;5072583;28;20482;-82
2022/09/16 00:43:55;;;;;;;0.68;0.63;;;;;;;;;;5072196;28;20028;-81
2022/09/16 00:46:51;;;;;;;2.67;0.80;;;;;;;;;;5073406;28;20025;-82
2022/09/16 00:49:26;;;;;;;1.35;0.55;;;;;;;;;;5071905;28;20041;-82
2022/09/16 00:51:55;;;;;;;1.42;0.88;;;;;;;;;;5058096;28;20025;-84
2022/09/16 00:54:21;;;;;;;0.90;0.70;;;;;;;;;;5075899;28;20385;-84
2022/09/16 00:56:49;;;;;;;2.92;0.80;;;;;;;;;;5058195;28;20039;-82
2022/09/16 00:59:21;;;;;;;3.22;0.70;;;;;;;;;;5057659;28;20060;-82
2022/09/16 01:01:47;;;;;;;1.63;0.80;;;;;;;;;;5057871;28;20396;-82
2022/09/16 01:04:22;;;;;;;1.30;0.60;;;;;;;;;;5041906;28;20412;-82
2022/09/16 01:06:48;;;;;;;0.60;0.60;;;;;;;;;;5076183;28;20036;-82
2022/09/16 01:09:14;;;;;;;2.67;1.17;;;;;;;;;;5057742;28;20028;-82
2022/09/16 01:11:39;;;;;;;2.72;0.70;;;;;;;;;;5058040;28;20028;-81
2022/09/16 01:16:57;;;;;;;1.13;0.73;;;;;;;;;;5075661;28;20099;-82
2022/09/16 01:19:37;;;;;;;1.50;0.60;;;;;;;;;;5041072;28;20082;-82
2022/09/16 01:22:40;;;;;;;2.83;0.75;;;;;;;;;;5057785;28;20043;-82
2022/09/16 01:25:32;;;;;;;1.40;0.53;;;;;;;;;;5057496;28;20021;-82
2022/09/16 01:28:30;;;;;;;1.00;0.77;;;;;;;;;;5075137;28;20491;-82
2022/09/16 01:31:19;;;;;;;1.20;0.85;;;;;;;;;;5040484;28;20202;-82
2022/09/16 01:34:09;;;;;;;5.03;0.80;;;;;;;;;;5075131;28;20090;-82
2022/09/16 01:36:40;;;;;;;1.27;0.75;;;;;;;;;;5075051;28;20431;-82
2022/09/16 01:39:21;;;;;;;2.15;0.75;;;;;;;;;;5057288;28;20023;-82
2022/09/16 01:41:51;;;;;;;2.58;0.80;;;;;;;;;;5075269;28;20103;-81
2022/09/16 01:44:26;;;;;;;1.77;0.70;;;;;;;;;;5040448;28;20400;-81
2022/09/16 01:47:02;;;;;;;1.75;0.77;;;;;;;;;;5056978;28;20055;-81
2022/09/16 01:49:46;;;;;;;1.88;0.70;;;;;;;;;;5056887;28;20016;-81
2022/09/16 01:52:20;;;;;;;0.75;0.43;;;;;;;;;;5057030;28;20476;-81
2022/09/16 01:55:06;;;;;;;1.10;0.70;;;;;;;;;;5074996;28;20443;-81
2022/09/16 01:57:41;;;;;;;3.80;1.00;;;;;;;;;;5056440;28;20029;-82
2022/09/16 02:00:09;;;;;;;1.20;0.55;;;;;;;;;;5074954;28;20504;-81
2022/09/16 02:02:44;;;;;;;2.03;0.65;;;;;;;;;;5056602;28;20036;-81
2022/09/16 02:05:17;;;;;;;3.38;0.73;;;;;;;;;;5056631;28;20498;-81
2022/09/16 02:07:48;;;;;;;1.27;0.85;;;;;;;;;;5056915;28;20024;-81
2022/09/16 02:10:27;;;;;;;1.50;0.90;;;;;;;;;;5056637;28;20029;-81
2022/09/16 02:12:57;;;;;;;4.85;0.88;;;;;;;;;;5056835;28;20029;-81
2022/09/16 02:15:24;;;;;;;1.02;0.80;;;;;;;;;;5056760;28;20028;-82
2022/09/16 02:17:55;;;;;;;0.98;0.63;;;;;;;;;;5074868;28;20040;-82
2022/09/16 02:20:25;;;;;;;2.20;1.00;;;;;;;;;;5039638;28;20034;-82
2022/09/16 02:22:55;;;;;;;0.73;0.65;;;;;;;;;;5056519;28;20020;-82
2022/09/16 02:25:21;;;;;;;1.70;0.90;;;;;;;;;;5056295;28;20032;-83
2022/09/16 02:27:51;;;;;;;1.50;0.80;;;;;;;;;;5056401;28;20032;-82
2022/09/16 02:30:18;;;;;;;1.50;0.75;;;;;;;;;;5057011;28;20029;-82
2022/09/16 02:32:52;;;;;;;1.38;0.80;;;;;;;;;;5056237;28;20028;-82
2022/09/16 02:35:19;;;;;;;1.42;0.70;;;;;;;;;;5056193;28;20060;-82
2022/09/16 02:37:52;;;;;;;1.60;0.93;;;;;;;;;;5039325;28;20111;-82
2022/09/16 02:40:41;;;;;;;1.67;0.93;;;;;;;;;;5056050;28;20032;-82
2022/09/16 02:43:06;;;;;;;1.90;0.85;;;;;;;;;;5056099;28;20020;-82
2022/09/16 02:45:43;;;;;;;2.15;0.80;;;;;;;;;;5055879;28;20040;-83
2022/09/16 02:48:19;;;;;;;0.93;0.75;;;;;;;;;;5074052;28;20037;-82
2022/09/16 02:51:17;;;;;;;2.70;0.80;;;;;;;;;;5055993;28;20029;-82
2022/09/16 02:53:51;;;;;;;1.92;0.85;;;;;;;;;;5055811;28;20472;-82
2022/09/16 02:56:23;;;;;;;1.00;0.70;;;;;;;;;;5039787;28;20046;-82
2022/09/16 02:58:48;;;;;;;1.50;0.90;;;;;;;;;;5055549;28;20045;-82
2022/09/16 03:01:14;;;;;;;2.15;0.75;;;;;;;;;;5055923;28;20025;-82
2022/09/16 03:03:40;;;;;;;0.80;0.80;;;;;;;;;;5055894;28;20070;-81
2022/09/16 03:06:19;;;;;;;1.98;0.70;;;;;;;;;;5055559;28;20058;-82
2022/09/16 03:08:45;;;;;;;1.58;0.60;;;;;;;;;;5055939;28;20016;-82
2022/09/16 03:11:39;;;;;;;2.08;0.63;;;;;;;;;;5072622;28;20029;-82
2022/09/16 03:14:22;;;;;;;2.05;0.80;;;;;;;;;;5073180;28;20056;-82
2022/09/16 03:17:18;;;;;;;1.45;0.75;;;;;;;;;;5073288;28;20427;-82
2022/09/16 03:20:10;;;;;;;0.65;0.57;;;;;;;;;;5055131;28;20071;-82
2022/09/16 03:23:01;;;;;;;1.20;0.68;;;;;;;;;;5073210;28;20075;-81
2022/09/16 03:25:39;;;;;;;1.67;0.70;;;;;;;;;;5055161;28;20159;-82
2022/09/16 03:28:15;;;;;;;0.63;0.40;;;;;;;;;;5055193;28;20031;-82
2022/09/16 03:30:56;;;;;;;1.77;0.70;;;;;;;;;;5073362;28;20469;-82
2022/09/16 03:33:26;;;;;;;1.83;0.85;;;;;;;;;;5055409;28;20486;-82
2022/09/16 03:35:56;;;;;;;1.05;0.70;;;;;;;;;;5055406;28;20106;-82
2022/09/16 03:38:21;;;;;;;2.05;0.55;;;;;;;;;;5055376;28;20051;-82
2022/09/16 03:40:47;;;;;;;1.90;0.90;;;;;;;;;;5073249;28;20017;-82
2022/09/16 03:43:15;;;;;;;1.58;0.50;;;;;;;;;;5055700;28;20032;-82
2022/09/16 03:45:41;;;;;;;1.13;0.75;;;;;;;;;;5055067;28;20021;-82
2022/09/16 03:48:07;;;;;;;0.85;0.40;;;;;;;;;;5055111;28;20032;-82
2022/09/16 03:50:32;;;;;;;3.80;0.90;;;;;;;;;;5054789;28;20415;-82
2022/09/16 03:52:58;;;;;;;1.25;0.70;;;;;;;;;;5055219;28;20036;-82
2022/09/16 03:55:23;;;;;;;1.20;0.60;;;;;;;;;;5073274;28;20372;-81
2022/09/16 03:57:48;;;;;;;0.85;0.50;;;;;;;;;;5054733;28;20448;-82
2022/09/16 04:00:14;;;;;;;1.33;0.68;;;;;;;;;;5054778;28;20025;-82
2022/09/16 04:02:40;;;;;;;1.23;0.65;;;;;;;;;;5055649;28;20400;-82
2022/09/16 04:05:07;;;;;;;1.48;0.82;;;;;;;;;;5073055;28;20025;-82
2022/09/16 04:07:33;;;;;;;1.58;0.82;;;;;;;;;;5038205;28;20036;-82
2022/09/16 04:09:58;;;;;;;0.70;0.55;;;;;;;;;;5054598;28;20162;-82
2022/09/16 04:12:24;;;;;;;1.27;0.50;;;;;;;;;;5072920;28;20472;-81
2022/09/16 04:14:49;;;;;;;1.58;0.57;;;;;;;;;;5054793;28;20137;-82
2022/09/16 04:17:15;;;;;;;1.55;0.80;;;;;;;;;;5055107;28;20029;-83
2022/09/16 04:19:40;;;;;;;13.82;0.90;;;;;;;;;;5054717;28;20020;-84
2022/09/16 04:22:05;;;;;;;2.63;0.80;;;;;;;;;;5057439;28;20036;-85
2022/09/16 04:24:31;;;;;;;5.93;1.00;;;;;;;;;;5076919;28;20029;-84
2022/09/16 04:26:57;;;;;;;1.20;0.90;;;;;;;;;;5058811;28;20025;-84
2022/09/16 04:29:22;;;;;;;3.75;0.90;;;;;;;;;;5058461;28;20399;-85
2022/09/16 04:31:47;;;;;;;1.45;0.75;;;;;;;;;;5058605;28;20545;-84
2022/09/16 04:34:13;;;;;;;1.85;0.70;;;;;;;;;;5075379;28;20028;-87
2022/09/16 04:36:38;;;;;;;2.58;1.25;;;;;;;;;;5058946;28;20058;-85
2022/09/16 04:39:04;;;;;;;2.45;0.90;;;;;;;;;;5059179;28;20048;-82
2022/09/16 04:41:30;;;;;;;5.45;1.20;;;;;;;;;;5058896;28;20021;-81
2022/09/16 04:43:57;;;;;;;1.75;0.90;;;;;;;;;;5058594;28;20031;-80
2022/09/16 04:46:28;;;;;;;4.18;1.23;;;;;;;;;;5041666;28;20024;-83
2022/09/16 04:48:54;;;;;;;3.65;1.25;;;;;;;;;;5056189;28;20020;-82
2022/09/16 04:51:21;;;;;;;3.33;1.20;;;;;;;;;;5042627;28;20024;-83
2022/09/16 04:53:47;;;;;;;3.53;1.27;;;;;;;;;;5041248;28;20453;-82
2022/09/16 04:56:15;;;;;;;6.55;1.52;;;;;;;;;;5051837;28;20029;-82
2022/09/16 04:58:48;;;;;;;2.13;1.42;;;;;;;;;;5051976;28;20133;-83
2022/09/16 05:01:23;;;;;;;8.32;1.23;;;;;;;;;;5052821;28;20187;-78
2022/09/16 05:03:53;;;;;;;8.90;2.15;;;;;;;;;;5036048;28;20066;-80
2022/09/16 05:06:24;;;;;;;15.05;3.75;;;;;;;;;;5037768;28;20024;-79
2022/09/16 05:08:51;;;;;;;18.98;3.38;;;;;;;;;;5059181;28;20097;-79
2022/09/16 05:11:18;;;;;;;8.00;2.40;;;;;;;;;;5055596;28;20429;-79
2022/09/16 05:13:44;;;;;;;11.55;2.65;;;;;;;;;;5051760;28;20253;-78
2022/09/16 05:16:15;;;;;;;11.90;2.90;;;;;;;;;;5051562;28;20028;-78
2022/09/16 05:18:42;;;;;;;9.23;3.28;;;;;;;;;;5052028;28;20119;-78
2022/09/16 05:21:11;;;;;;;12.32;2.40;;;;;;;;;;5052146;28;20070;-78
2022/09/16 05:23:36;;;;;;;9.63;2.88;;;;;;;;;;5035534;28;20043;-79
2022/09/16 05:26:04;;;;;;;9.80;2.85;;;;;;;;;;5052237;28;20381;-78
2022/09/16 05:28:30;;;;;;;6.43;2.22;;;;;;;;;;5070302;28;20032;-78
2022/09/16 05:31:05;;;;;;;7.10;1.98;;;;;;;;;;5052125;28;20088;-78
2022/09/16 05:33:31;;;;;;;6.80;1.80;;;;;;;;;;5068960;28;20106;-78
2022/09/16 05:36:03;;;;;;;5.28;1.95;;;;;;;;;;5051721;28;20024;-78
2022/09/16 05:38:28;;;;;;;6.55;1.60;;;;;;;;;;5070047;28;20056;-78
2022/09/16 05:40:58;;;;;;;7.30;1.98;;;;;;;;;;5035319;28;20032;-78
2022/09/16 05:43:23;;;;;;;3.25;1.65;;;;;;;;;;5051985;28;20207;-78
2022/09/16 05:45:53;;;;;;;6.40;1.60;;;;;;;;;;5051607;28;20508;-78
2022/09/16 05:48:18;;;;;;;5.80;1.60;;;;;;;;;;5051211;28;20024;-79
2022/09/16 05:50:53;;;;;;;4.15;1.48;;;;;;;;;;5051426;28;20066;-78
2022/09/16 05:53:18;;;;;;;3.65;1.30;;;;;;;;;;5074395;28;20040;-79
2022/09/16 05:56:02;;;;;;;3.25;1.30;;;;;;;;;;5057909;28;20115;-79
2022/09/16 05:58:28;;;;;;;;;;;;;;;;;;5040932;28;20057;-79
2022/09/16 06:01:04;;;;;;;3.83;1.10;;;;;;;;;;5039961;28;20053;-79
2022/09/16 06:03:29;;;;;;;6.40;1.27;;;;;;;;;;5075016;28;20063;-79
2022/09/16 06:06:02;;;;;;;2.13;1.10;;;;;;;;;;5056316;28;20028;-78
2022/09/16 06:08:33;;;;;;;3.53;0.80;;;;;;;;;;5039675;28;20036;-79
2022/09/16 06:11:06;;;;;;;2.30;0.90;;;;;;;;;;5074309;28;20024;-79
2022/09/16 06:13:33;;;;;;;2.25;1.15;;;;;;;;;;5057368;28;20032;-79
2022/09/16 06:15:59;;;;;;;2.08;0.98;;;;;;;;;;5056744;28;20078;-79
2022/09/16 06:18:27;;;;;;;1.98;0.98;;;;;;;;;;5057205;28;20055;-79
2022/09/16 06:20:53;;;;;;;1.48;0.82;;;;;;;;;;5039292;28;20040;-79
2022/09/16 06:23:18;;;;;;;5.18;0.90;;;;;;;;;;5039203;28;20032;-79
2022/09/16 06:25:44;;;;;;;3.88;1.08;;;;;;;;;;5055734;28;20037;-79
2022/09/16 06:28:10;;;;;;;2.47;0.70;;;;;;;;;;5039461;28;20119;-79
2022/09/16 06:30:36;;;;;;;5.68;1.52;;;;;;;;;;5074300;28;20132;-79
2022/09/16 06:33:02;;;;;;;1.77;0.80;;;;;;;;;;5039872;28;20056;-77
2022/09/16 06:35:27;;;;;;;3.38;0.98;;;;;;;;;;5074247;28;20439;-79
2022/09/16 06:37:53;;;;;;;3.67;1.02;;;;;;;;;;5074098;28;20033;-79
2022/09/16 06:40:19;;;;;;;2.05;1.00;;;;;;;;;;5074466;28;20025;-79
2022/09/16 06:42:44;;;;;;;1.83;0.82;;;;;;;;;;5074201;28;20040;-79
2022/09/16 06:45:09;;;;;;;3.90;0.70;;;;;;;;;;5073582;28;20454;-79
2022/09/16 06:47:35;;;;;;;3.78;1.20;;;;;;;;;;5055783;28;20035;-79
2022/09/16 06:50:01;;;;;;;3.47;0.88;;;;;;;;;;5056271;28;20051;-78
2022/09/16 06:52:27;;;;;;;2.55;1.02;;;;;;;;;;5073811;28;20024;-78
2022/09/16 06:54:53;;;;;;;1.38;0.70;;;;;;;;;;5073739;28;20033;-79
2022/09/16 06:57:22;;;;;;;2.15;0.65;;;;;;;;;;5073159;28;20531;-79
2022/09/16 06:59:51;;;;;;;4.20;0.90;;;;;;;;;;5056012;28;20100;-78
2022/09/16 07:02:18;;;;;;;2.33;0.82;;;;;;;;;;5055487;28;20032;-79
2022/09/16 07:04:44;;;;;;;1.33;0.77;;;;;;;;;;5056104;28;20036;-79
2022/09/16 07:07:09;;;;;;;1.83;0.85;;;;;;;;;;5072920;28;20032;-79
2022/09/16 07:09:35;;;;;;;2.58;1.17;;;;;;;;;;5055790;28;20036;-79
2022/09/16 07:12:00;;;;;;;4.55;1.27;;;;;;;;;;5074040;28;20031;-78
2022/09/16 07:14:27;;;;;;;2.85;0.80;;;;;;;;;;5055413;28;20032;-79
2022/09/16 07:16:52;;;;;;;1.15;0.80;;;;;;;;;;5072999;28;20028;-78
2022/09/16 07:19:18;;;;;;;0.70;0.68;;;;;;;;;;5055266;28;20028;-78
2022/09/16 07:21:43;;;;;;;1.58;0.90;;;;;;;;;;5073445;28;20473;-79
2022/09/16 07:24:11;;;;;;;1.63;0.65;;;;;;;;;;5071677;28;20028;-79
2022/09/16 07:26:38;;;;;;;3.00;0.77;;;;;;;;;;5055241;28;20028;-79
2022/09/16 07:29:05;;;;;;;2.05;0.95;;;;;;;;;;5055339;28;20052;-79
2022/09/16 07:31:33;;;;;;;2.08;0.70;;;;;;;;;;5073100;28;20057;-78
2022/09/16 07:34:00;;;;;;;0.50;0.50;;;;;;;;;;5038878;28;20032;-78
2022/09/16 07:36:28;;;;;;;1.38;0.70;;;;;;;;;;5056165;28;20055;-78
2022/09/16 07:38:57;;;;;;;2.00;0.77;;;;;;;;;;5073919;28;20032;-79
2022/09/16 07:41:25;;;;;;;1.52;0.75;;;;;;;;;;5056160;28;20029;-79
2022/09/16 07:43:52;;;;;;;2.42;0.75;;;;;;;;;;5055093;28;20020;-78
2022/09/16 07:46:18;;;;;;;3.08;1.05;;;;;;;;;;5055441;28;20020;-78
2022/09/16 07:48:46;;;;;;;2.55;0.80;;;;;;;;;;5055782;28;20028;-79
2022/09/16 07:51:14;;;;;;;1.60;0.52;;;;;;;;;;5055675;28;20381;-78
2022/09/16 07:53:40;;;;;;;2.15;0.80;;;;;;;;;;5054970;28;20021;-79
2022/09/16 07:56:09;;;;;;;3.70;0.90;;;;;;;;;;5054888;28;20090;-80
2022/09/16 07:58:35;;;;;;;1.15;0.50;;;;;;;;;;5054970;28;20070;-79
2022/09/16 08:01:01;;;;;;;4.25;0.90;;;;;;;;;;5055223;28;20027;-79
2022/09/16 08:03:27;;;;;;;2.00;0.70;;;;;;;;;;5055358;28;20048;-79
2022/09/16 08:05:52;;;;;;;5.60;0.80;;;;;;;;;;5055772;28;20060;-79
2022/09/16 08:08:18;;;;;;;2.53;0.88;;;;;;;;;;5055117;28;20384;-79
2022/09/16 08:10:52;;;;;;;1.40;0.65;;;;;;;;;;5073092;28;20086;-79
2022/09/16 08:13:17;;;;;;;1.42;0.77;;;;;;;;;;5055207;28;20077;-80
2022/09/16 08:15:43;;;;;;;3.30;1.00;;;;;;;;;;5073000;28;20029;-79
2022/09/16 08:18:08;;;;;;;5.05;1.00;;;;;;;;;;5073355;28;20032;-79
2022/09/16 08:20:35;;;;;;;1.52;0.88;;;;;;;;;;5054994;28;20092;-79
2022/09/16 08:23:01;;;;;;;3.20;0.75;;;;;;;;;;5038378;28;20025;-79
2022/09/16 08:25:26;;;;;;;1.40;0.75;;;;;;;;;;5072927;28;20035;-78
2022/09/16 08:27:52;;;;;;;3.13;1.00;;;;;;;;;;5038351;28;20408;-79
2022/09/16 08:30:17;;;;;;;3.35;1.00;;;;;;;;;;5038992;28;20036;-77
2022/09/16 08:32:43;;;;;;;2.92;1.00;;;;;;;;;;5072890;28;20038;-79
2022/09/16 08:35:08;;;;;;;4.40;1.10;;;;;;;;;;5054904;28;20029;-80
2022/09/16 08:37:34;;;;;;;4.43;1.10;;;;;;;;;;5072753;28;20112;-80
2022/09/16 08:40:00;;;;;;;10.80;1.30;;;;;;;;;;5038368;28;20021;-81
2022/09/16 08:42:45;;;;;;;2.97;1.00;;;;;;;;;;5054946;28;20040;-78
2022/09/16 08:45:27;;;;;;;10.70;1.40;;;;;;;;;;5054666;28;20063;-80
2022/09/16 08:48:19;;;;;;;8.48;1.98;;;;;;;;;;5038424;28;20119;-79
2022/09/16 08:50:46;;;;;;;8.38;1.67;;;;;;;;;;5038022;28;20387;-78
2022/09/16 08:53:16;;;;;;;5.57;1.52;;;;;;;;;;5054884;28;20028;-79
2022/09/16 08:55:46;;;;;;;6.47;1.23;;;;;;;;;;5037176;28;20033;-80
2022/09/16 08:58:16;;;;;;;4.10;1.20;;;;;;;;;;5053929;28;20053;-79
2022/09/16 09:00:43;;;;;;;5.03;1.42;;;;;;;;;;5054012;28;20016;-80
2022/09/16 09:03:18;;;;;;;5.43;1.60;;;;;;;;;;5053991;28;20028;-79
2022/09/16 09:05:53;;;;;;;3.58;1.10;;;;;;;;;;5053987;28;20031;-79
2022/09/16 09:08:21;;;;;;;7.18;1.17;;;;;;;;;;5072989;28;20078;-79
2022/09/16 09:10:52;;;;;;;5.30;1.25;;;;;;;;;;5074965;28;20016;-79
2022/09/16 09:13:43;;;;;;;3.95;1.10;;;;;;;;;;5057503;28;20369;-80
2022/09/16 09:16:21;;;;;;;6.50;1.05;;;;;;;;;;5040724;28;20020;-79
2022/09/16 09:19:02;;;;;;;3.63;0.88;;;;;;;;;;5075188;28;20024;-80
2022/09/16 09:21:44;;;;;;;13.80;1.23;;;;;;;;;;5057378;28;20024;-80
2022/09/16 09:24:29;;;;;;;4.72;0.70;;;;;;;;;;5075755;28;20025;-79
2022/09/16 09:26:59;;;;;;;6.57;1.00;;;;;;;;;;5057899;28;20032;-79
2022/09/16 09:29:59;;;;;;;2.70;0.90;;;;;;;;;;5058283;28;20055;-79
2022/09/16 09:33:02;;;;;;;2.00;0.82;;;;;;;;;;5057760;28;20103;-78
2022/09/16 09:35:36;;;;;;;2.58;0.85;;;;;;;;;;5075532;28;20384;-79
2022/09/16 09:38:10;;;;;;;2.50;0.82;;;;;;;;;;5075504;28;20059;-80
2022/09/16 09:40:53;;;;;;;6.07;1.30;;;;;;;;;;5057609;28;20164;-80
2022/09/16 09:43:18;;;;;;;6.03;1.05;;;;;;;;;;5058061;28;20028;-79
2022/09/16 09:46:05;;;;;;;3.57;0.90;;;;;;;;;;5075645;28;20035;-81
2022/09/16 09:48:40;;;;;;;5.47;0.95;;;;;;;;;;5057363;28;20328;-80
2022/09/16 09:51:16;;;;;;;2.88;0.90;;;;;;;;;;5057939;28;20032;-78
2022/09/16 09:53:46;;;;;;;4.95;0.75;;;;;;;;;;5040732;28;20024;-80
2022/09/16 09:56:33;;;;;;;1.73;0.93;;;;;;;;;;5057723;28;20037;-79
2022/09/16 09:59:20;;;;;;;4.47;0.70;;;;;;;;;;5057080;28;20508;-79
2022/09/16 10:01:45;;;;;;;7.05;1.10;;;;;;;;;;5075280;28;20032;-78
2022/09/16 10:04:14;;;;;;;5.47;0.75;;;;;;;;;;5075452;28;20029;-77
2022/09/16 10:06:40;;;;;;;1.38;0.80;;;;;;;;;;5057153;28;20073;-79
2022/09/16 10:09:11;;;;;;;2.28;0.70;;;;;;;;;;5040488;28;20395;-80
2022/09/16 10:11:47;;;;;;;4.32;0.90;;;;;;;;;;5056974;28;20075;-79
2022/09/16 10:14:34;;;;;;;6.25;0.85;;;;;;;;;;5075794;28;20094;-79
2022/09/16 10:17:13;;;;;;;2.42;0.80;;;;;;;;;;5040368;28;20373;-80
2022/09/16 10:19:51;;;;;;;2.78;1.02;;;;;;;;;;5074229;28;20405;-77
2022/09/16 10:22:25;;;;;;;5.45;0.80;;;;;;;;;;5074896;28;20028;-78
2022/09/16 10:25:00;;;;;;;2.90;0.98;;;;;;;;;;5056615;28;20032;-78
2022/09/16 10:27:34;;;;;;;8.18;0.80;;;;;;;;;;5039977;28;20063;-78
2022/09/16 10:30:17;;;;;;;2.35;0.80;;;;;;;;;;5040236;28;20029;-79
2022/09/16 10:33:36;;;;;;;1.98;0.80;;;;;;;;;;5056140;28;20029;-80
2022/09/16 10:36:05;;;;;;;1.95;1.02;;;;;;;;;;5058264;28;20068;-80
2022/09/16 10:38:43;;;;;;;3.08;0.70;;;;;;;;;;5073912;28;20138;-80
2022/09/16 10:41:24;;;;;;;4.00;0.90;;;;;;;;;;5055724;28;20012;-79
2022/09/16 10:44:10;;;;;;;7.43;1.02;;;;;;;;;;5039011;28;20025;-80
2022/09/16 10:46:36;;;;;;;3.50;0.65;;;;;;;;;;5055612;28;20029;-80
2022/09/16 10:49:09;;;;;;;2.92;0.70;;;;;;;;;;5073785;28;20032;-79
2022/09/16 10:51:35;;;;;;;1.15;0.68;;;;;;;;;;5055356;28;20024;-79
2022/09/16 10:54:04;;;;;;;4.90;0.85;;;;;;;;;;5038965;28;20402;-79
2022/09/16 10:56:45;;;;;;;3.42;0.70;;;;;;;;;;5055678;28;20496;-80
2022/09/16 10:59:12;;;;;;;2.05;0.70;;;;;;;;;;5054865;28;20489;-79
2022/09/16 11:01:43;;;;;;;10.80;0.80;;;;;;;;;;5072833;28;20032;-79
2022/09/16 11:04:26;;;;;;;1.95;0.70;;;;;;;;;;5073402;28;20149;-80
2022/09/16 11:07:23;;;;;;;1.25;0.50;;;;;;;;;;5055123;28;20077;-80
2022/09/16 11:10:07;;;;;;;1.75;0.90;;;;;;;;;;5055111;28;20032;-80
2022/09/16 11:12:38;;;;;;;;;;;;;;;;;;5055379;28;20078;-79
2022/09/16 11:15:44;;;;;;;1.77;0.80;;;;;;;;;;5072668;28;19915;-79
2022/09/16 11:18:39;;;;;;;2.60;0.40;;;;;;;;;;5072960;28;20488;-79
2022/09/16 11:21:16;;;;;;;3.80;0.80;;;;;;;;;;5054337;28;20044;-78
2022/09/16 11:24:04;;;;;;;1.25;0.68;;;;;;;;;;5055988;28;20224;-78
2022/09/16 11:27:01;;;;;;;1.60;0.45;;;;;;;;;;5055538;28;20046;-78
2022/09/16 11:29:52;;;;;;;4.18;0.47;;;;;;;;;;5055959;28;20028;-78
2022/09/16 11:32:54;;;;;;;5.78;0.65;;;;;;;;;;5072956;28;20086;-78
2022/09/16 11:35:31;;;;;;;2.33;0.75;;;;;;;;;;5073638;28;20021;-78
2022/09/16 11:38:03;;;;;;;5.95;1.10;;;;;;;;;;5038882;28;20028;-78
2022/09/16 11:40:46;;;;;;;2.42;0.68;;;;;;;;;;5073340;28;20052;-77
2022/09/16 11:43:24;;;;;;;1.50;0.70;;;;;;;;;;5073469;28;20103;-79
2022/09/16 11:45:57;;;;;;;2.78;0.60;;;;;;;;;;5055244;28;20438;-78
2022/09/16 11:48:25;;;;;;;2.40;0.93;;;;;;;;;;5055619;28;20036;-78
2022/09/16 11:50:59;;;;;;;4.15;0.80;;;;;;;;;;5073210;28;20063;-79
2022/09/16 11:53:42;;;;;;;1.75;0.70;;;;;;;;;;5073713;28;20048;-80
2022/09/16 11:56:32;;;;;;;0.82;0.50;;;;;;;;;;5073463;28;20109;-80
2022/09/16 11:59:22;;;;;;;0.77;0.55;;;;;;;;;;5055484;28;20385;-79
2022/09/16 12:01:53;;;;;;;1.40;0.68;;;;;;;;;;5073162;28;20024;-80
2022/09/16 12:04:55;;;;;;;1.33;0.82;;;;;;;;;;5055215;28;20028;-79
2022/09/16 12:07:35;;;;;;;2.83;0.60;;;;;;;;;;5068986;28;20039;-79
2022/09/16 12:10:11;;;;;;;1.02;0.70;;;;;;;;;;5055213;28;20388;-80
2022/09/16 12:12:44;;;;;;;1.23;0.73;;;;;;;;;;5055406;28;20031;-78
2022/09/16 12:15:13;;;;;;;;;;;;;;;;;;5055444;28;20055;-81
2022/09/16 12:17:49;;;;;;;3.90;0.93;;;;;;;;;;5072836;28;19912;-79
2022/09/16 12:20:23;;;;;;;5.07;0.77;;;;;;;;;;5055320;28;20024;-79
2022/09/16 12:22:53;;;;;;;3.97;0.88;;;;;;;;;;5038118;28;20059;-79
2022/09/16 12:25:26;;;;;;;5.43;1.00;;;;;;;;;;5038037;28;20032;-80
2022/09/16 12:27:53;;;;;;;2.53;0.73;;;;;;;;;;5039693;28;20016;-80
2022/09/16 12:30:22;;;;;;;1.48;0.88;;;;;;;;;;5055782;28;20052;-79
2022/09/16 12:33:06;;;;;;;1.88;0.80;;;;;;;;;;5055645;28;20025;-79
2022/09/16 12:35:54;;;;;;;2.38;1.10;;;;;;;;;;5054787;28;20538;-77
2022/09/16 12:38:20;;;;;;;3.78;2.00;;;;;;;;;;5054945;28;20085;-79
2022/09/16 12:41:19;;;;;;;4.50;1.90;;;;;;;;;;5054831;28;20024;-80
2022/09/16 12:43:58;;;;;;;2.88;1.88;;;;;;;;;;5076704;28;20029;-81
2022/09/16 12:46:54;;;;;;;8.88;2.17;;;;;;;;;;5041899;28;20480;-82
2022/09/16 12:49:48;;;;;;;4.68;1.92;;;;;;;;;;5058566;28;20032;-80
2022/09/16 12:52:38;;;;;;;5.20;1.50;;;;;;;;;;5060115;28;20031;-80
2022/09/16 12:55:12;;;;;;;3.65;1.67;;;;;;;;;;5076206;28;20043;-82
2022/09/16 12:58:10;;;;;;;11.25;2.13;;;;;;;;;;5060206;28;20024;-83
2022/09/16 13:00:57;;;;;;;6.72;1.90;;;;;;;;;;5059031;28;20089;-82
2022/09/16 13:03:26;;;;;;;5.13;1.77;;;;;;;;;;5059478;28;20037;-82
2022/09/16 13:05:53;;;;;;;5.18;1.98;;;;;;;;;;5035978;28;20025;-83
2022/09/16 13:08:24;;;;;;;5.70;2.03;;;;;;;;;;5052565;28;20025;-82
2022/09/16 13:11:02;;;;;;;4.22;1.80;;;;;;;;;;5052382;28;20108;-82
2022/09/16 13:13:39;;;;;;;8.35;2.13;;;;;;;;;;5053049;28;20036;-82
2022/09/16 13:16:06;;;;;;;5.10;2.13;;;;;;;;;;5053762;28;20094;-82
2022/09/16 13:18:41;;;;;;;4.60;2.13;;;;;;;;;;5052490;28;20040;-81
2022/09/16 13:21:17;;;;;;;8.63;2.42;;;;;;;;;;5070355;28;20012;-81
2022/09/16 13:23:45;;;;;;;4.82;2.28;;;;;;;;;;5052674;28;20058;-81
2022/09/16 13:26:10;;;;;;;7.93;2.75;;;;;;;;;;5052027;28;20039;-82
2022/09/16 13:28:44;;;;;;;6.72;2.50;;;;;;;;;;5035545;28;20032;-81
2022/09/16 13:31:16;;;;;;;4.95;2.22;;;;;;;;;;5052225;28;20535;-81
2022/09/16 13:33:42;;;;;;;17.23;2.10;;;;;;;;;;5052056;28;20349;-79
2022/09/16 13:36:20;;;;;;;7.90;2.33;;;;;;;;;;5070784;28;20215;-81
2022/09/16 13:38:55;;;;;;;22.45;2.25;;;;;;;;;;5071213;28;20333;-81
2022/09/16 13:41:46;;;;;;;6.57;1.88;;;;;;;;;;5052652;28;20091;-80
2022/09/16 13:44:32;;;;;;;3.97;1.92;;;;;;;;;;5052119;28;20032;-81
2022/09/16 13:47:09;;;;;;;6.22;1.92;;;;;;;;;;5069769;28;20020;-81
2022/09/16 13:49:58;;;;;;;5.82;2.58;;;;;;;;;;5051352;28;20029;-81
2022/09/16 13:52:31;;;;;;;6.65;2.08;;;;;;;;;;5068390;28;20260;-81
2022/09/16 13:55:01;;;;;;;9.90;2.65;;;;;;;;;;5033649;28;20162;-81
2022/09/16 13:57:51;;;;;;;9.45;2.92;;;;;;;;;;5052074;28;20056;-81
2022/09/16 14:00:20;;;;;;;9.70;2.10;;;;;;;;;;5051708;28;20113;-81
2022/09/16 14:02:46;;;;;;;7.80;2.20;;;;;;;;;;5035208;28;20024;-80
2022/09/16 14:05:31;;;;;;;6.30;2.22;;;;;;;;;;5069634;28;20024;-81
2022/09/16 14:08:22;;;;;;;8.05;2.55;;;;;;;;;;5052086;28;20043;-81
2022/09/16 14:11:08;;;;;;;6.38;2.00;;;;;;;;;;5055223;28;20020;-82
2022/09/16 14:13:46;;;;;;;5.00;2.05;;;;;;;;;;5070353;28;20278;-81
2022/09/16 14:16:18;;;;;;;3.50;1.77;;;;;;;;;;5053873;28;20032;-81
2022/09/16 14:18:55;;;;;;;5.45;1.73;;;;;;;;;;5035502;28;20024;-81
2022/09/16 14:21:22;;;;;;;3.65;1.80;;;;;;;;;;5034993;28;20036;-81
2022/09/16 14:23:48;;;;;;;4.68;2.00;;;;;;;;;;5069809;28;20028;-81
2022/09/16 14:26:22;;;;;;;4.57;1.77;;;;;;;;;;5051360;28;20524;-81
2022/09/16 14:28:48;;;;;;;5.32;1.65;;;;;;;;;;5051202;28;20221;-81
2022/09/16 14:31:17;;;;;;;2.92;1.50;;;;;;;;;;5036384;28;20037;-82
2022/09/16 14:33:46;;;;;;;2.30;1.40;;;;;;;;;;5052834;28;20052;-81
2022/09/16 14:36:21;;;;;;;5.88;2.00;;;;;;;;;;5042477;28;20107;-82
2022/09/16 14:39:08;;;;;;;4.85;1.50;;;;;;;;;;5077041;28;20077;-82
2022/09/16 14:41:36;;;;;;;6.78;1.45;;;;;;;;;;5040066;28;20093;-81
2022/09/16 14:44:17;;;;;;;4.63;1.40;;;;;;;;;;5056944;28;20405;-80
2022/09/16 14:46:44;;;;;;;2.45;1.40;;;;;;;;;;5075350;28;20035;-82
2022/09/16 14:49:11;;;;;;;4.15;1.35;;;;;;;;;;5057000;28;20063;-81
2022/09/16 14:51:38;;;;;;;3.70;1.67;;;;;;;;;;5057856;28;20431;-81
2022/09/16 14:54:03;;;;;;;5.75;1.50;;;;;;;;;;5074535;28;20036;-81
2022/09/16 14:56:29;;;;;;;13.48;1.65;;;;;;;;;;5056654;28;20556;-80
2022/09/16 14:58:55;;;;;;;5.32;1.48;;;;;;;;;;5056698;28;20049;-80
2022/09/16 15:01:26;;;;;;;3.58;1.30;;;;;;;;;;5056575;28;20028;-80
2022/09/16 15:03:56;;;;;;;5.40;1.40;;;;;;;;;;5057099;28;20028;-79
2022/09/16 15:06:25;;;;;;;4.32;1.40;;;;;;;;;;5074825;28;20078;-80
2022/09/16 15:08:57;;;;;;;3.40;1.20;;;;;;;;;;5057557;28;20116;-82
2022/09/16 15:11:27;;;;;;;4.25;1.50;;;;;;;;;;5058232;28;20063;-81
2022/09/16 15:13:52;;;;;;;3.90;1.40;;;;;;;;;;5041730;28;20027;-81
2022/09/16 15:16:20;;;;;;;4.60;1.30;;;;;;;;;;5057994;28;20028;-81
2022/09/16 15:18:55;;;;;;;15.27;1.58;;;;;;;;;;5075306;28;20021;-81